Time;durP1;ratioP1;P1;durP2;ratioP2;P2;SDS_P1;SDS_P2;PMS_P1;PMS_P2;Temp;Humidity;BMP_temperature;BMP_pressure;BME280_temperature;BME280_humidity;BME280_pressure;Samples;Min_cycle;Max_cycle;Signal;HPM_P1;HPM_P2
2023/03/15 00:01:29;;;;;;;;;;;5.80;82.00;;;-151.14;100.00;62537.16;5072101;28;19920;-84
2023/03/15 00:03:57;;;;;;;;;;;5.80;81.90;;;-151.14;100.00;62537.16;5071994;28;19920;-84
2023/03/15 00:06:25;;;;;;;;;;;5.80;81.90;;;-151.14;100.00;62537.16;5072024;28;19927;-84
2023/03/15 00:08:53;;;;;;;;;;;5.80;81.90;;;-151.14;100.00;62537.16;5054844;28;20097;-84
2023/03/15 00:11:21;;;;;;;;;;;5.80;82.20;;;-151.14;100.00;62537.16;5071561;28;20208;-84
2023/03/15 00:13:51;;;;;;;;;;;5.80;82.00;;;-151.14;100.00;62537.16;5055332;28;20120;-84
2023/03/15 00:16:19;;;;;;;;;;;5.80;82.10;;;-151.14;100.00;62537.16;5055139;28;19927;-84
2023/03/15 00:18:47;;;;;;;;;;;5.80;81.90;;;-151.14;100.00;62537.16;5054668;28;19927;-84
2023/03/15 00:21:15;;;;;;;;;;;5.80;81.90;;;-151.14;100.00;62537.16;5054821;28;19920;-84
2023/03/15 00:23:43;;;;;;;;;;;5.80;81.80;;;-151.14;100.00;62537.16;5071668;28;19920;-84
2023/03/15 00:26:11;;;;;;;;;;;5.80;81.40;;;-151.14;100.00;62537.16;5071648;28;19927;-84
2023/03/15 00:28:39;;;;;;;;;;;5.80;81.40;;;-151.14;100.00;62537.16;5071240;28;19927;-84
2023/03/15 00:31:13;;;;;;;;;;;5.80;81.30;;;-151.14;100.00;62537.16;5071437;28;19920;-84
2023/03/15 00:33:41;;;;;;;;;;;5.80;81.60;;;-151.14;100.00;62537.16;5054825;28;19921;-84
2023/03/15 00:36:09;;;;;;;;;;;5.80;81.50;;;-151.14;100.00;62537.16;5054909;28;19927;-84
2023/03/15 00:38:38;;;;;;;;;;;5.80;81.70;;;-151.14;100.00;62537.16;5071009;28;19943;-84
2023/03/15 00:41:07;;;;;;;;;;;5.80;81.80;;;-151.14;100.00;62537.16;5071500;28;20119;-84
2023/03/15 00:43:35;;;;;;;;;;;5.80;81.50;;;-151.14;100.00;62537.16;5054790;28;19927;-84
2023/03/15 00:46:02;;;;;;;;;;;5.80;81.70;;;-151.14;100.00;62537.16;5071400;28;19927;-84
2023/03/15 00:48:33;;;;;;;;;;;5.80;82.70;;;-151.14;100.00;62537.16;5070898;28;19920;-84
2023/03/15 00:51:03;;;;;;;;;;;5.80;81.90;;;-151.14;100.00;62537.16;5071352;28;19921;-84
2023/03/15 00:53:31;;;;;;;;;;;5.80;81.90;;;-151.14;100.00;62537.16;5071388;28;19970;-84
2023/03/15 00:56:03;;;;;;;;;;;5.70;81.30;;;-151.14;100.00;62537.16;5071341;28;19921;-84
2023/03/15 00:58:31;;;;;;;;;;;5.70;81.30;;;-151.14;100.00;62537.16;5054028;28;20212;-84
2023/03/15 01:00:59;;;;;;;;;;;5.70;81.10;;;-151.14;100.00;62537.16;5071128;28;20143;-84
2023/03/15 01:03:27;;;;;;;;;;;5.80;81.30;;;-151.14;100.00;62537.16;5054502;28;19926;-84
2023/03/15 01:05:56;;;;;;;;;;;5.70;81.40;;;-151.14;100.00;62537.16;5071166;28;19921;-84
2023/03/15 01:08:25;;;;;;;;;;;5.70;81.40;;;-151.14;100.00;62537.16;5087366;28;20107;-84
2023/03/15 01:10:53;;;;;;;;;;;5.70;81.20;;;-151.14;100.00;62537.16;5054390;28;20115;-84
2023/03/15 01:13:21;;;;;;;;;;;5.70;81.20;;;-151.14;100.00;62537.16;5071092;28;19920;-84
2023/03/15 01:15:49;;;;;;;;;;;5.70;81.40;;;-151.14;100.00;62537.16;5087686;28;19920;-84
2023/03/15 01:18:17;;;;;;;;;;;5.70;81.60;;;-151.14;100.00;62537.16;5070385;28;19920;-84
2023/03/15 01:20:45;;;;;;;;;;;5.70;81.50;;;-151.14;100.00;62537.16;5070767;28;19920;-84
2023/03/15 01:23:14;;;;;;;;;;;5.70;81.70;;;-151.14;100.00;62537.16;5053381;28;19927;-84
2023/03/15 01:25:42;;;;;;;;;;;5.70;81.40;;;-151.14;100.00;62537.16;5070733;28;19926;-84
2023/03/15 01:28:10;;;;;;;;;;;5.70;81.40;;;-151.14;100.00;62537.16;5070085;28;20230;-84
2023/03/15 01:30:38;;;;;;;;;;;5.70;81.50;;;-151.14;100.00;62537.16;5070562;28;19921;-84
2023/03/15 01:33:06;;;;;;;;;;;5.70;81.70;;;-151.14;100.00;62537.16;5090016;23;19921;-82
2023/03/15 01:35:34;;;;;;;;;;;5.70;81.60;;;-151.14;100.00;62537.16;5050507;28;19927;-82
2023/03/15 01:38:02;;;;;;;;;;;5.70;81.60;;;-151.14;100.00;62537.16;5050518;28;19927;-82
2023/03/15 01:40:34;;;;;;;;;;;5.70;81.60;;;-151.14;100.00;62537.16;5050679;28;20208;-82
2023/03/15 01:43:15;;;;;;;;;;;5.70;81.90;;;-151.14;100.00;62537.16;5064092;28;19928;-82
2023/03/15 01:46:28;;;;;;;;;;;5.70;81.80;;;-151.14;100.00;62537.16;5014378;28;19921;-82
2023/03/15 01:49:11;;;;;;;;;;;5.70;81.40;;;-151.14;100.00;62537.16;5029165;28;20231;-82
2023/03/15 01:51:44;;;;;;;;;;;5.70;81.40;;;-151.14;100.00;62537.16;5064318;28;19922;-83
2023/03/15 01:54:15;;;;;;;;;;;5.70;81.50;;;-151.14;100.00;62537.16;5011227;28;19922;-83
2023/03/15 01:56:48;;;;;;;;;;;5.70;81.50;;;-151.14;100.00;62537.16;4994787;28;19922;-82
2023/03/15 01:59:17;;;;;;;;;;;5.70;81.30;;;-151.14;100.00;62537.16;4994168;28;19926;-82
2023/03/15 02:01:45;;;;;;;;;;;5.70;81.40;;;-151.14;100.00;62537.16;5010707;28;19921;-82
2023/03/15 02:04:16;;;;;;;;;;;5.70;81.30;;;-151.14;100.00;62537.16;5010895;28;20224;-82
2023/03/15 02:06:46;;;;;;;;;;;5.70;81.40;;;-151.14;100.00;62537.16;4994477;28;20098;-82
2023/03/15 02:09:15;;;;;;;;;;;5.70;81.40;;;-151.14;100.00;62537.16;5010232;28;19921;-82
2023/03/15 02:11:43;;;;;;;;;;;5.70;81.40;;;-151.14;100.00;62537.16;5010693;28;19963;-82
2023/03/15 02:14:13;;;;;;;;;;;5.70;81.40;;;-151.14;100.00;62537.16;5027100;28;20131;-82
2023/03/15 02:16:44;;;;;;;;;;;5.70;81.40;;;-151.14;100.00;62537.16;5006702;28;20035;-82
2023/03/15 02:19:24;;;;;;;;;;;5.70;81.60;;;-151.14;100.00;62537.16;5046373;28;19928;-83
2023/03/15 02:21:55;;;;;;;;;;;5.70;81.60;;;-151.14;100.00;62537.16;5030302;28;19928;-82
2023/03/15 02:24:28;;;;;;;;;;;5.70;81.70;;;-151.14;100.00;62537.16;5030265;28;19927;-83
2023/03/15 02:26:56;;;;;;;;;;;5.70;81.70;;;-151.14;100.00;62537.16;5030000;28;20254;-82
2023/03/15 02:29:27;;;;;;;;;;;5.70;81.80;;;-151.14;100.00;62537.16;5029733;28;19921;-83
2023/03/15 02:31:56;;;;;;;;;;;5.70;81.90;;;-151.14;100.00;62537.16;5036739;28;19921;-82
2023/03/15 02:34:26;;;;;;;;;;;5.70;81.90;;;-151.14;100.00;62537.16;5035248;28;19921;-82
2023/03/15 02:36:54;;;;;;;;;;;5.70;82.00;;;-151.14;100.00;62537.16;5053619;28;20208;-82
2023/03/15 02:39:23;;;;;;;;;;;5.70;81.70;;;-151.14;100.00;62537.16;5019937;28;19928;-83
2023/03/15 02:41:52;;;;;;;;;;;5.70;81.40;;;-151.14;100.00;62537.16;5036721;28;19920;-82
2023/03/15 02:44:23;;;;;;;;;;;5.70;81.30;;;-151.14;100.00;62537.16;5036723;28;19921;-83
2023/03/15 02:46:54;;;;;;;;;;;5.70;81.10;;;-151.14;100.00;62537.16;5053071;28;19935;-83
2023/03/15 02:49:24;;;;;;;;;;;5.70;81.10;;;-151.14;100.00;62537.16;5052586;28;19921;-82
2023/03/15 02:51:52;;;;;;;;;;;5.70;81.20;;;-151.14;100.00;62537.16;5020086;28;19921;-82
2023/03/15 02:54:20;;;;;;;;;;;5.70;81.50;;;-151.14;100.00;62537.16;5020172;28;19927;-82
2023/03/15 02:56:48;;;;;;;;;;;5.70;81.50;;;-151.14;100.00;62537.16;5020116;28;19921;-82
2023/03/15 02:59:16;;;;;;;;;;;5.70;81.60;;;-151.14;100.00;62537.16;5035970;28;19928;-82
2023/03/15 03:01:44;;;;;;;;;;;5.70;81.70;;;-151.14;100.00;62537.16;5036282;28;20209;-82
2023/03/15 03:04:14;;;;;;;;;;;5.70;81.60;;;-151.14;100.00;62537.16;5052939;28;19920;-82
2023/03/15 03:06:43;;;;;;;;;;;5.70;81.60;;;-151.14;100.00;62537.16;5036313;28;19927;-82
2023/03/15 03:09:12;;;;;;;;;;;5.70;81.40;;;-151.14;100.00;62537.16;5035780;28;19921;-82
2023/03/15 03:11:41;;;;;;;;;;;5.70;81.60;;;-151.14;100.00;62537.16;5069510;28;20090;-82
2023/03/15 03:14:12;;;;;;;;;;;5.70;81.60;;;-151.14;100.00;62537.16;5036271;28;19920;-82
2023/03/15 03:16:41;;;;;;;;;;;5.70;81.70;;;-151.14;100.00;62537.16;5052770;28;19928;-82
2023/03/15 03:19:11;;;;;;;;;;;5.70;81.60;;;-151.14;100.00;62537.16;5035714;28;19927;-82
2023/03/15 03:21:43;;;;;;;;;;;5.70;81.70;;;-151.14;100.00;62537.16;5036044;28;19927;-82
2023/03/15 03:24:15;;;;;;;;;;;5.70;81.80;;;-151.14;100.00;62537.16;5036155;28;19920;-82
2023/03/15 03:26:44;;;;;;;;;;;5.70;82.10;;;-151.14;100.00;62537.16;5036020;28;19927;-82
2023/03/15 03:29:15;;;;;;;;;;;5.70;82.20;;;-151.14;100.00;62537.16;5051934;28;19921;-82
2023/03/15 03:31:44;;;;;;;;;;;5.60;81.50;;;-151.14;100.00;62537.16;5035963;28;19921;-82
2023/03/15 03:34:14;;;;;;;;;;;5.60;81.60;;;-151.14;100.00;62537.16;5052679;28;19921;-82
2023/03/15 03:36:43;;;;;;;;;;;5.70;81.80;;;-151.14;100.00;62537.16;5019008;28;19921;-82
2023/03/15 03:39:13;;;;;;;;;;;5.60;81.70;;;-151.14;100.00;62537.16;5034512;28;19921;-83
2023/03/15 03:41:43;;;;;;;;;;;5.70;81.70;;;-151.14;100.00;62537.16;5019385;28;20208;-82
2023/03/15 03:44:13;;;;;;;;;;;5.60;81.40;;;-151.14;100.00;62537.16;5019455;28;19927;-82
2023/03/15 03:46:42;;;;;;;;;;;5.60;81.50;;;-151.14;100.00;62537.16;5051811;28;19921;-82
2023/03/15 03:49:10;;;;;;;;;;;5.60;81.40;;;-151.14;100.00;62537.16;5051781;28;20089;-82
2023/03/15 03:51:38;;;;;;;;;;;5.60;81.40;;;-151.14;100.00;62537.16;5035555;28;19921;-82
2023/03/15 03:54:08;;;;;;;;;;;5.60;81.50;;;-151.14;100.00;62537.16;5019270;28;20115;-82
2023/03/15 03:56:36;;;;;;;;;;;5.60;81.60;;;-151.14;100.00;62537.16;5052102;28;19931;-82
2023/03/15 03:59:04;;;;;;;;;;;5.60;81.30;;;-151.14;100.00;62537.16;5034969;28;19921;-83
2023/03/15 04:01:44;;;;;;;;;;;5.60;81.40;;;-151.14;100.00;62537.16;5051834;28;19927;-82
2023/03/15 04:04:13;;;;;;;;;;;5.60;81.40;;;-151.14;100.00;62537.16;5051963;28;19920;-82
2023/03/15 04:06:44;;;;;;;;;;;5.60;81.40;;;-151.14;100.00;62537.16;5068772;28;19929;-82
2023/03/15 04:09:14;;;;;;;;;;;5.60;81.50;;;-151.14;100.00;62537.16;5034867;28;19927;-82
2023/03/15 04:11:44;;;;;;;;;;;5.60;81.50;;;-151.14;100.00;62537.16;5035420;28;19921;-82
2023/03/15 04:14:13;;;;;;;;;;;5.60;81.50;;;-151.14;100.00;62537.16;5068708;28;20093;-82
2023/03/15 04:16:43;;;;;;;;;;;5.60;81.30;;;-151.14;100.00;62537.16;5019012;28;20120;-82
2023/03/15 04:19:13;;;;;;;;;;;5.60;81.40;;;-151.14;100.00;62537.16;5068058;28;19921;-82
2023/03/15 04:21:46;;;;;;;;;;;5.60;81.40;;;-151.14;100.00;62537.16;5035145;28;19921;-83
2023/03/15 04:24:35;;;;;;;;;;;5.60;81.70;;;-151.14;100.00;62537.16;5024697;28;19921;-82
2023/03/15 04:27:06;;;;;;;;;;;5.60;81.40;;;-151.14;100.00;62537.16;5035240;28;20234;-82
2023/03/15 04:29:54;;;;;;;;;;;5.60;81.40;;;-151.14;100.00;62537.16;5014798;28;19927;-82
2023/03/15 04:32:41;;;;;;;;;;;5.60;81.40;;;-151.14;100.00;62537.16;5048110;28;19927;-82
2023/03/15 04:35:25;;;;;;;;;;;5.60;81.20;;;-151.14;100.00;62537.16;5031628;28;19921;-82
2023/03/15 04:38:09;;;;;;;;;;;5.60;81.00;;;-151.14;100.00;62537.16;5030882;28;19928;-82
2023/03/15 04:41:09;;;;;;;;;;;5.60;80.90;;;-151.14;100.00;62537.16;5031548;28;19927;-82
2023/03/15 04:43:56;;;;;;;;;;;5.60;80.90;;;-151.14;100.00;62537.16;5047948;28;19921;-82
2023/03/15 04:46:34;;;;;;;;;;;5.60;80.90;;;-151.14;100.00;62537.16;5031501;28;19936;-83
2023/03/15 04:49:19;;;;;;;;;;;5.60;81.00;;;-151.14;100.00;62537.16;5047431;28;19921;-82
2023/03/15 04:51:59;;;;;;;;;;;5.60;80.80;;;-151.14;100.00;62537.16;5048010;28;19928;-82
2023/03/15 04:54:52;;;;;;;;;;;5.60;80.90;;;-151.14;100.00;62537.16;5047954;28;19921;-82
2023/03/15 04:57:39;;;;;;;;;;;5.60;81.10;;;-151.14;100.00;62537.16;5046082;28;19932;-82
2023/03/15 05:00:33;;;;;;;;;;;5.60;81.00;;;-151.14;100.00;62537.16;5067884;28;19921;-82
2023/03/15 05:03:25;;;;;;;;;;;5.60;81.10;;;-151.14;100.00;62537.16;5051013;28;20246;-82
2023/03/15 05:06:06;;;;;;;;;;;5.60;81.20;;;-151.14;100.00;62537.16;5067991;28;19921;-82
2023/03/15 05:08:44;;;;;;;;;;;5.60;81.60;;;-151.14;100.00;62537.16;5051443;28;19927;-82
2023/03/15 05:11:18;;;;;;;;;;;5.60;81.30;;;-151.14;100.00;62537.16;5034376;28;19920;-83
2023/03/15 05:13:53;;;;;;;;;;;5.60;81.10;;;-151.14;100.00;62537.16;5034251;28;19921;-82
2023/03/15 05:16:33;;;;;;;;;;;5.60;81.10;;;-151.14;100.00;62537.16;5034473;28;19961;-82
2023/03/15 05:19:15;;;;;;;;;;;5.60;80.90;;;-151.14;100.00;62537.16;5033704;28;20119;-82
2023/03/15 05:22:00;;;;;;;;;;;5.60;80.90;;;-151.14;100.00;62537.16;5034524;28;19921;-82
2023/03/15 05:24:48;;;;;;;;;;;5.60;81.00;;;-151.14;100.00;62537.16;5030404;28;19921;-82
2023/03/15 05:27:35;;;;;;;;;;;5.70;81.10;;;-151.14;100.00;62537.16;5066943;28;20135;-82
2023/03/15 05:30:26;;;;;;;;;;;5.70;81.20;;;-151.14;100.00;62537.16;5051811;28;19927;-82
2023/03/15 05:33:20;;;;;;;;;;;5.70;81.20;;;-151.14;100.00;62537.16;5021010;28;19921;-81
2023/03/15 05:36:04;;;;;;;;;;;5.70;80.90;;;-151.14;100.00;62537.16;5067415;28;19951;-82
2023/03/15 05:38:37;;;;;;;;;;;5.70;80.80;;;-151.14;100.00;62537.16;5017013;28;19921;-82
2023/03/15 05:41:37;;;;;;;;;;;5.70;80.90;;;-151.14;100.00;62537.16;5018524;28;19920;-82
2023/03/15 05:44:19;;;;;;;;;;;5.80;81.00;;;-151.14;100.00;62537.16;5050488;28;19927;-82
2023/03/15 05:47:17;;;;;;;;;;;5.80;81.20;;;-151.14;100.00;62537.16;4998817;28;19928;-82
2023/03/15 05:50:02;;;;;;;;;;;5.80;81.20;;;-151.14;100.00;62537.16;5033919;28;19920;-82
2023/03/15 05:52:58;;;;;;;;;;;5.90;80.80;;;-151.14;100.00;62537.16;5035734;28;20097;-82
2023/03/15 05:55:35;;;;;;;;;;;6.00;80.40;;;-151.14;100.00;62537.16;5050328;28;19927;-81
2023/03/15 05:58:25;;;;;;;;;;;6.10;80.10;;;-151.14;100.00;62537.16;5049666;28;19921;-82
2023/03/15 06:01:25;;;;;;;;;;;6.30;79.80;;;-151.14;100.00;62537.16;5007936;28;19921;-82
2023/03/15 06:04:06;;;;;;;;;;;6.40;79.20;;;-151.14;100.00;62537.16;5030262;28;20124;-82
2023/03/15 06:06:35;;;;;;;;;;;6.40;79.00;;;-151.14;100.00;62537.16;4997909;28;19921;-82
2023/03/15 06:09:06;;;;;;;;;;;6.50;79.20;;;-151.14;100.00;62537.16;5045965;28;19927;-82
2023/03/15 06:11:34;;;;;;;;;;;6.50;79.50;;;-151.14;100.00;62537.16;5030166;28;19928;-83
2023/03/15 06:14:02;;;;;;;;;;;6.50;79.60;;;-151.14;100.00;62537.16;4997473;28;19921;-82
2023/03/15 06:16:53;;;;;;;;;;;6.40;79.70;;;-151.14;100.00;62537.16;5045830;28;20115;-82
2023/03/15 06:19:24;;;;;;;;;;;6.40;80.00;;;-151.14;100.00;62537.16;5016509;28;19921;-82
2023/03/15 06:21:55;;;;;;;;;;;6.30;80.20;;;-151.14;100.00;62537.16;5066859;28;20112;-82
2023/03/15 06:24:52;;;;;;;;;;;6.30;80.50;;;-151.14;100.00;62537.16;5022894;28;20216;-83
2023/03/15 06:27:20;;;;;;;;;;;6.30;80.80;;;-151.14;100.00;62537.16;5049925;28;19927;-82
2023/03/15 06:29:50;;;;;;;;;;;6.30;80.90;;;-151.14;100.00;62537.16;5016546;28;19929;-82
2023/03/15 06:32:20;;;;;;;;;;;6.30;81.00;;;-151.14;100.00;62537.16;5016929;28;19928;-82
2023/03/15 06:34:50;;;;;;;;;;;6.30;81.00;;;-151.14;100.00;62537.16;5049883;28;19929;-83
2023/03/15 06:37:18;;;;;;;;;;;6.30;81.00;;;-151.14;100.00;62537.16;5033476;28;20101;-82
2023/03/15 06:39:46;;;;;;;;;;;6.30;80.90;;;-151.14;100.00;62537.16;5032666;28;19921;-82
2023/03/15 06:42:14;;;;;;;;;;;6.30;80.90;;;-151.14;100.00;62537.16;5016681;28;19921;-82
2023/03/15 06:44:42;;;;;;;;;;;6.30;80.90;;;-151.14;100.00;62537.16;5016800;28;19920;-82
2023/03/15 06:47:11;;;;;;;;;;;6.40;80.90;;;-151.14;100.00;62537.16;5066509;28;19927;-82
2023/03/15 06:49:39;;;;;;;;;;;6.30;81.00;;;-151.14;100.00;62537.16;5016043;28;19921;-82
2023/03/15 06:52:09;;;;;;;;;;;6.30;81.00;;;-151.14;100.00;62537.16;5016929;28;19979;-82
2023/03/15 06:54:38;;;;;;;;;;;6.30;81.10;;;-151.14;100.00;62537.16;5049600;28;19924;-82
2023/03/15 06:57:06;;;;;;;;;;;6.30;81.20;;;-151.14;100.00;62537.16;5049781;28;20118;-82
2023/03/15 06:59:34;;;;;;;;;;;6.30;81.40;;;-151.14;100.00;62537.16;5032418;28;19921;-82
2023/03/15 07:02:02;;;;;;;;;;;6.20;81.40;;;-151.14;100.00;62537.16;5032940;28;19920;-82
2023/03/15 07:04:30;;;;;;;;;;;6.20;81.60;;;-151.14;100.00;62537.16;5032825;28;19920;-81
2023/03/15 07:06:58;;;;;;;;;;;6.20;81.60;;;-151.14;100.00;62537.16;5049512;28;19927;-82
2023/03/15 07:09:27;;;;;;;;;;;6.20;81.70;;;-151.14;100.00;62537.16;5032435;28;19921;-82
2023/03/15 07:11:55;;;;;;;;;;;6.20;81.60;;;-151.14;100.00;62537.16;5065988;28;20200;-82
2023/03/15 07:14:23;;;;;;;;;;;6.20;81.70;;;-151.14;100.00;62537.16;5049374;28;20230;-82
2023/03/15 07:16:51;;;;;;;;;;;6.20;81.70;;;-151.14;100.00;62537.16;5032713;28;19921;-82
2023/03/15 07:19:19;;;;;;;;;;;6.20;81.70;;;-151.14;100.00;62537.16;5015811;28;19925;-81
2023/03/15 07:21:47;;;;;;;;;;;6.30;81.80;;;-151.14;100.00;62537.16;5035047;28;19929;-82
2023/03/15 07:24:15;;;;;;;;;;;6.30;81.70;;;-151.14;100.00;62537.16;5069502;28;19928;-82
2023/03/15 07:26:44;;;;;;;;;;;6.40;81.60;;;-151.14;100.00;62537.16;5052753;28;19927;-82
2023/03/15 07:29:12;;;;;;;;;;;6.40;81.50;;;-151.14;100.00;62537.16;5035541;28;19921;-81
2023/03/15 07:31:40;;;;;;;;;;;6.50;81.40;;;-151.14;100.00;62537.16;5052458;28;19920;-82
2023/03/15 07:34:08;;;;;;;;;;;6.50;81.20;;;-151.14;100.00;62537.16;5052636;28;19921;-82
2023/03/15 07:36:36;;;;;;;;;;;6.60;81.00;;;-151.14;100.00;62537.16;5035963;28;19920;-81
2023/03/15 07:39:04;;;;;;;;;;;6.60;80.80;;;-151.14;100.00;62537.16;5052055;28;20230;-82
2023/03/15 07:41:32;;;;;;;;;;;6.70;80.70;;;-151.14;100.00;62537.16;5019364;28;19935;-81
2023/03/15 07:44:16;;;;;;;;;;;6.80;80.40;;;-151.14;100.00;62537.16;5052289;28;19921;-82
2023/03/15 07:46:44;;;;;;;;;;;6.80;80.10;;;-151.14;100.00;62537.16;5035681;28;19921;-82
2023/03/15 07:49:12;;;;;;;;;;;6.90;80.00;;;-151.14;100.00;62537.16;5051821;28;19921;-82
2023/03/15 07:51:41;;;;;;;;;;;6.90;79.80;;;-151.14;100.00;62537.16;5035368;28;19921;-82
2023/03/15 07:54:09;;;;;;;;;;;6.90;79.60;;;-151.14;100.00;62537.16;5052290;28;19920;-82
2023/03/15 07:56:37;;;;;;;;;;;7.00;79.40;;;-151.14;100.00;62537.16;5053354;28;19960;-81
2023/03/15 07:59:05;;;;;;;;;;;7.00;79.20;;;-151.14;100.00;62537.16;5068482;28;19921;-82
2023/03/15 08:01:34;;;;;;;;;;;7.00;79.20;;;-151.14;100.00;62537.16;5035438;28;19931;-81
2023/03/15 08:04:02;;;;;;;;;;;7.10;79.10;;;-151.14;100.00;62537.16;5019204;28;19920;-81
2023/03/15 08:06:30;;;;;;;;;;;7.10;79.00;;;-151.14;100.00;62537.16;5068631;28;20124;-82
2023/03/15 08:09:00;;;;;;;;;;;7.10;78.90;;;-151.14;100.00;62537.16;5034895;28;19921;-81
2023/03/15 08:11:28;;;;;;;;;;;7.10;78.80;;;-151.14;100.00;62537.16;5051700;28;19921;-82
2023/03/15 08:13:56;;;;;;;;;;;7.10;78.70;;;-151.14;100.00;62537.16;5052152;28;19921;-81
2023/03/15 08:16:24;;;;;;;;;;;7.10;78.60;;;-151.14;100.00;62537.16;5035392;28;20302;-81
2023/03/15 08:18:53;;;;;;;;;;;7.10;78.50;;;-151.14;100.00;62537.16;5034870;28;19920;-82
2023/03/15 08:21:21;;;;;;;;;;;7.10;78.60;;;-151.14;100.00;62537.16;5052807;28;20212;-82
2023/03/15 08:23:49;;;;;;;;;;;7.10;78.60;;;-151.14;100.00;62537.16;5018837;28;19921;-81
2023/03/15 08:26:17;;;;;;;;;;;7.10;78.80;;;-151.14;100.00;62537.16;5035185;28;19921;-81
2023/03/15 08:28:45;;;;;;;;;;;7.00;78.80;;;-151.14;100.00;62537.16;5051246;28;20212;-81
2023/03/15 08:31:13;;;;;;;;;;;7.00;78.90;;;-151.14;100.00;62537.16;5050989;28;19921;-82
2023/03/15 08:33:41;;;;;;;;;;;7.00;79.10;;;-151.14;100.00;62537.16;5018766;28;19920;-82
2023/03/15 08:36:11;;;;;;;;;;;6.90;79.20;;;-151.14;100.00;62537.16;5035009;28;19939;-81
2023/03/15 08:38:38;;;;;;;;;;;6.90;79.30;;;-151.14;100.00;62537.16;5034542;28;19921;-81
2023/03/15 08:41:06;;;;;;;;;;;6.90;79.40;;;-151.14;100.00;62537.16;5035080;28;19927;-82
2023/03/15 08:43:34;;;;;;;;;;;6.80;79.40;;;-151.14;100.00;62537.16;5052691;28;19920;-81
2023/03/15 08:46:02;;;;;;;;;;;6.80;79.60;;;-151.14;100.00;62537.16;5052546;28;19920;-81
2023/03/15 08:48:31;;;;;;;;;;;6.80;79.70;;;-151.14;100.00;62537.16;5034348;28;19921;-81
2023/03/15 08:51:02;;;;;;;;;;;6.80;79.90;;;-151.14;100.00;62537.16;5034691;28;19921;-82
2023/03/15 08:53:32;;;;;;;;;;;6.70;80.00;;;-151.14;100.00;62537.16;5018447;28;19927;-82
2023/03/15 08:56:00;;;;;;;;;;;6.70;80.10;;;-151.14;100.00;62537.16;5067853;28;19921;-81
2023/03/15 08:58:28;;;;;;;;;;;6.70;80.20;;;-151.14;100.00;62537.16;5034335;28;19927;-81
2023/03/15 09:00:56;;;;;;;;;;;6.70;80.30;;;-151.14;100.00;62537.16;5018253;28;19921;-81
2023/03/15 09:03:24;;;;;;;;;;;6.70;80.40;;;-151.14;100.00;62537.16;5067126;28;19920;-81
2023/03/15 09:05:56;;;;;;;;;;;6.60;80.40;;;-151.14;100.00;62537.16;5034536;28;19921;-82
2023/03/15 09:08:24;;;;;;;;;;;6.70;80.50;;;-151.14;100.00;62537.16;5017620;28;20123;-81
2023/03/15 09:10:55;;;;;;;;;;;6.60;80.50;;;-151.14;100.00;62537.16;5017995;28;19940;-82
2023/03/15 09:13:23;;;;;;;;;;;6.60;80.60;;;-151.14;100.00;62537.16;5034420;28;19921;-81
2023/03/15 09:15:52;;;;;;;;;;;6.60;80.60;;;-151.14;100.00;62537.16;5018163;28;19927;-81
2023/03/15 09:18:20;;;;;;;;;;;6.60;80.70;;;-151.14;100.00;62537.16;5033771;28;20200;-82
2023/03/15 09:20:48;;;;;;;;;;;6.50;80.70;;;-151.14;100.00;62537.16;5034404;28;19920;-81
2023/03/15 09:23:16;;;;;;;;;;;6.50;80.90;;;-151.14;100.00;62537.16;5034154;28;19924;-82
2023/03/15 09:25:44;;;;;;;;;;;6.50;81.00;;;-151.14;100.00;62537.16;5052114;28;19927;-82
2023/03/15 09:28:13;;;;;;;;;;;6.50;81.00;;;-151.14;100.00;62537.16;5033578;28;20208;-81
2023/03/15 09:30:41;;;;;;;;;;;6.50;81.00;;;-151.14;100.00;62537.16;5034137;28;19920;-82
2023/03/15 09:33:13;;;;;;;;;;;6.50;81.00;;;-151.14;100.00;62537.16;5050507;28;19921;-81
2023/03/15 09:35:41;;;;;;;;;;;6.50;81.10;;;-151.14;100.00;62537.16;5034243;28;20231;-82
2023/03/15 09:38:09;;;;;;;;;;;6.50;81.20;;;-151.14;100.00;62537.16;5033349;28;19929;-81
2023/03/15 09:40:39;;;;;;;;;;;6.50;81.20;;;-151.14;100.00;62537.16;5067456;28;19921;-82
2023/03/15 09:43:22;;;;;;;;;;;6.40;81.10;;;-151.14;100.00;62537.16;5033238;28;19935;-82
2023/03/15 09:45:57;;;;;;;;;;;6.40;81.10;;;-151.14;100.00;62537.16;5033973;28;19927;-82
2023/03/15 09:48:27;;;;;;;;;;;6.40;81.20;;;-151.14;100.00;62537.16;5049989;28;19927;-81
2023/03/15 09:50:58;;;;;;;;;;;6.40;81.20;;;-151.14;100.00;62537.16;5033844;28;20093;-82
2023/03/15 09:53:27;;;;;;;;;;;6.40;81.30;;;-151.14;100.00;62537.16;5033718;28;19928;-82
2023/03/15 09:55:55;;;;;;;;;;;6.40;81.30;;;-151.14;100.00;62537.16;5067164;28;19921;-82
2023/03/15 09:58:25;;;;;;;;;;;6.40;81.40;;;-151.14;100.00;62537.16;5049970;28;19927;-82
2023/03/15 10:00:56;;;;;;;;;;;6.40;81.50;;;-151.14;100.00;62537.16;5051510;28;19927;-82
2023/03/15 10:03:29;;;;;;;;;;;6.40;81.50;;;-151.14;100.00;62537.16;5050140;28;19921;-82
2023/03/15 10:05:58;;;;;;;;;;;6.40;81.50;;;-151.14;100.00;62537.16;5033674;28;19924;-81
2023/03/15 10:08:26;;;;;;;;;;;6.40;81.60;;;-151.14;100.00;62537.16;5049655;28;19921;-82
2023/03/15 10:10:57;;;;;;;;;;;6.40;81.60;;;-151.14;100.00;62537.16;5033794;28;19921;-82
2023/03/15 10:13:32;;;;;;;;;;;6.40;81.60;;;-151.14;100.00;62537.16;5050178;28;19921;-82
2023/03/15 10:16:05;;;;;;;;;;;6.40;81.60;;;-151.14;100.00;62537.16;5033693;28;19928;-81
2023/03/15 10:18:42;;;;;;;;;;;6.40;81.70;;;-151.14;100.00;62537.16;5032965;28;19921;-81
2023/03/15 10:21:12;;;;;;;;;;;6.40;81.70;;;-151.14;100.00;62537.16;5066632;28;19971;-82
2023/03/15 10:23:44;;;;;;;;;;;6.40;81.70;;;-151.14;100.00;62537.16;5066788;28;19921;-81
2023/03/15 10:26:12;;;;;;;;;;;6.40;81.70;;;-151.14;100.00;62537.16;5066777;28;19928;-82
2023/03/15 10:28:41;;;;;;;;;;;6.40;81.80;;;-151.14;100.00;62537.16;5033068;28;19927;-82
2023/03/15 10:31:12;;;;;;;;;;;6.40;81.80;;;-151.14;100.00;62537.16;5016975;28;19920;-81
2023/03/15 10:33:41;;;;;;;;;;;6.40;81.70;;;-151.14;100.00;62537.16;5049829;28;20124;-81
2023/03/15 10:36:14;;;;;;;;;;;6.40;81.80;;;-151.14;100.00;62537.16;5050934;28;19929;-82
2023/03/15 10:38:41;;;;;;;;;;;6.30;81.90;;;-151.14;100.00;62537.16;5049392;28;19943;-82
2023/03/15 10:41:10;;;;;;;;;;;6.30;82.70;;;-151.14;100.00;62537.16;5033298;28;19927;-81
2023/03/15 10:43:40;;;;;;;;;;;6.30;81.90;;;-151.14;100.00;62537.16;5033133;28;19921;-82
2023/03/15 10:46:10;;;;;;;;;;;6.30;81.90;;;-151.14;100.00;62537.16;5049557;28;19921;-81
2023/03/15 10:48:39;;;;;;;;;;;6.30;81.90;;;-151.14;100.00;62537.16;5032787;28;19921;-82
2023/03/15 10:51:08;;;;;;;;;;;6.30;82.00;;;-151.14;100.00;62537.16;5066495;28;19927;-82
2023/03/15 10:53:36;;;;;;;;;;;6.30;82.00;;;-151.14;100.00;62537.16;5032974;28;19921;-81
2023/03/15 10:56:06;;;;;;;;;;;6.30;82.00;;;-151.14;100.00;62537.16;5034455;28;19927;-81
2023/03/15 10:58:41;;;;;;;;;;;6.30;82.10;;;-151.14;100.00;62537.16;5052655;28;19921;-81
2023/03/15 11:01:13;;;;;;;;;;;6.30;82.10;;;-151.14;100.00;62537.16;5036560;28;20116;-82
2023/03/15 11:03:42;;;;;;;;;;;6.30;82.10;;;-151.14;100.00;62537.16;5069677;28;19927;-81
2023/03/15 11:06:19;;;;;;;;;;;6.30;82.10;;;-151.14;100.00;62537.16;5069771;28;19935;-82
2023/03/15 11:08:47;;;;;;;;;;;6.30;82.10;;;-151.14;100.00;62537.16;5052283;28;20258;-81
2023/03/15 11:11:15;;;;;;;;;;;6.30;82.10;;;-151.14;100.00;62537.16;5019861;28;19927;-82
2023/03/15 11:13:43;;;;;;;;;;;6.30;82.10;;;-151.14;100.00;62537.16;5053847;28;19921;-82
2023/03/15 11:16:20;;;;;;;;;;;6.30;82.20;;;-151.14;100.00;62537.16;5052735;28;20116;-82
2023/03/15 11:18:52;;;;;;;;;;;6.30;82.20;;;-151.14;100.00;62537.16;5053329;28;19921;-81
2023/03/15 11:21:20;;;;;;;;;;;6.30;82.10;;;-151.14;100.00;62537.16;5036214;28;20142;-81
2023/03/15 11:23:49;;;;;;;;;;;6.30;82.20;;;-151.14;100.00;62537.16;5069351;28;19927;-81